sensor_id;sensor_type;location;lat;lon;timestamp;P1;durP1;ratioP1;P2;durP2;ratioP2
11962;SDS011;62678;52.130;5.584;2022-11-20T00:01:22;45.63;;;24.23;;
11962;SDS011;62678;52.130;5.584;2022-11-20T00:03:50;48.20;;;25.55;;
11962;SDS011;62678;52.130;5.584;2022-11-20T00:06:19;48.70;;;25.95;;
11962;SDS011;62678;52.130;5.584;2022-11-20T00:08:47;52.13;;;27.30;;
11962;SDS011;62678;52.130;5.584;2022-11-20T00:11:15;55.95;;;30.10;;
11962;SDS011;62678;52.130;5.584;2022-11-20T00:13:43;58.90;;;30.98;;
11962;SDS011;62678;52.130;5.584;2022-11-20T00:16:11;61.20;;;29.83;;
11962;SDS011;62678;52.130;5.584;2022-11-20T00:18:39;54.85;;;28.05;;
11962;SDS011;62678;52.130;5.584;2022-11-20T00:21:10;53.53;;;27.42;;
11962;SDS011;62678;52.130;5.584;2022-11-20T00:23:40;50.83;;;26.88;;
11962;SDS011;62678;52.130;5.584;2022-11-20T00:26:08;50.92;;;26.83;;
11962;SDS011;62678;52.130;5.584;2022-11-20T00:28:37;43.72;;;24.75;;
11962;SDS011;62678;52.130;5.584;2022-11-20T00:31:05;45.53;;;25.02;;
11962;SDS011;62678;52.130;5.584;2022-11-20T00:33:33;46.53;;;25.55;;
11962;SDS011;62678;52.130;5.584;2022-11-20T00:36:00;41.75;;;23.27;;
11962;SDS011;62678;52.130;5.584;2022-11-20T00:38:28;42.70;;;23.23;;
11962;SDS011;62678;52.130;5.584;2022-11-20T00:40:57;39.70;;;21.75;;
11962;SDS011;62678;52.130;5.584;2022-11-20T00:43:25;43.25;;;23.48;;
11962;SDS011;62678;52.130;5.584;2022-11-20T00:45:55;42.58;;;23.30;;
11962;SDS011;62678;52.130;5.584;2022-11-20T00:48:23;44.20;;;23.95;;
11962;SDS011;62678;52.130;5.584;2022-11-20T00:50:50;44.50;;;23.83;;
11962;SDS011;62678;52.130;5.584;2022-11-20T00:53:18;42.28;;;23.33;;
11962;SDS011;62678;52.130;5.584;2022-11-20T00:55:52;40.47;;;23.50;;
11962;SDS011;62678;52.130;5.584;2022-11-20T00:58:22;40.72;;;23.20;;
11962;SDS011;62678;52.130;5.584;2022-11-20T01:00:49;46.67;;;23.30;;
11962;SDS011;62678;52.130;5.584;2022-11-20T01:03:16;46.38;;;24.45;;
11962;SDS011;62678;52.130;5.584;2022-11-20T01:05:43;47.00;;;24.60;;
11962;SDS011;62678;52.130;5.584;2022-11-20T01:08:10;45.65;;;25.02;;
11962;SDS011;62678;52.130;5.584;2022-11-20T01:10:37;44.50;;;24.25;;
11962;SDS011;62678;52.130;5.584;2022-11-20T01:13:04;49.83;;;26.27;;
11962;SDS011;62678;52.130;5.584;2022-11-20T01:15:49;50.30;;;25.60;;
11962;SDS011;62678;52.130;5.584;2022-11-20T01:18:16;47.00;;;24.88;;
11962;SDS011;62678;52.130;5.584;2022-11-20T01:20:43;39.35;;;22.27;;
11962;SDS011;62678;52.130;5.584;2022-11-20T01:23:10;38.72;;;21.63;;
11962;SDS011;62678;52.130;5.584;2022-11-20T01:25:36;32.00;;;18.70;;
11962;SDS011;62678;52.130;5.584;2022-11-20T01:28:03;34.15;;;19.10;;
11962;SDS011;62678;52.130;5.584;2022-11-20T01:30:30;33.53;;;17.67;;
11962;SDS011;62678;52.130;5.584;2022-11-20T01:32:58;28.90;;;16.67;;
11962;SDS011;62678;52.130;5.584;2022-11-20T01:35:25;29.67;;;17.15;;
11962;SDS011;62678;52.130;5.584;2022-11-20T01:37:51;29.58;;;17.08;;
11962;SDS011;62678;52.130;5.584;2022-11-20T01:40:18;28.33;;;16.02;;
11962;SDS011;62678;52.130;5.584;2022-11-20T01:42:46;25.98;;;15.45;;
11962;SDS011;62678;52.130;5.584;2022-11-20T01:45:56;31.17;;;16.05;;
11962;SDS011;62678;52.130;5.584;2022-11-20T01:48:30;28.52;;;16.38;;
11962;SDS011;62678;52.130;5.584;2022-11-20T01:51:01;29.70;;;16.92;;
11962;SDS011;62678;52.130;5.584;2022-11-20T01:53:30;29.35;;;17.48;;
11962;SDS011;62678;52.130;5.584;2022-11-20T01:56:00;31.48;;;17.45;;
11962;SDS011;62678;52.130;5.584;2022-11-20T01:58:30;27.42;;;16.85;;
11962;SDS011;62678;52.130;5.584;2022-11-20T02:01:00;28.80;;;16.15;;
11962;SDS011;62678;52.130;5.584;2022-11-20T02:03:28;27.90;;;16.70;;
11962;SDS011;62678;52.130;5.584;2022-11-20T02:05:56;26.52;;;16.27;;
11962;SDS011;62678;52.130;5.584;2022-11-20T02:08:28;30.10;;;17.15;;
11962;SDS011;62678;52.130;5.584;2022-11-20T02:10:55;28.45;;;17.00;;
11962;SDS011;62678;52.130;5.584;2022-11-20T02:13:22;30.45;;;17.55;;
11962;SDS011;62678;52.130;5.584;2022-11-20T02:16:09;27.45;;;16.27;;
11962;SDS011;62678;52.130;5.584;2022-11-20T02:18:38;27.88;;;16.02;;
11962;SDS011;62678;52.130;5.584;2022-11-20T02:21:06;33.38;;;17.25;;
11962;SDS011;62678;52.130;5.584;2022-11-20T02:26:22;34.03;;;18.58;;
11962;SDS011;62678;52.130;5.584;2022-11-20T02:28:52;32.25;;;17.20;;
11962;SDS011;62678;52.130;5.584;2022-11-20T02:31:20;31.02;;;17.45;;
11962;SDS011;62678;52.130;5.584;2022-11-20T02:33:46;29.98;;;17.55;;
11962;SDS011;62678;52.130;5.584;2022-11-20T02:36:14;31.52;;;17.27;;
11962;SDS011;62678;52.130;5.584;2022-11-20T02:38:42;33.15;;;18.17;;
11962;SDS011;62678;52.130;5.584;2022-11-20T02:41:11;32.00;;;18.33;;
11962;SDS011;62678;52.130;5.584;2022-11-20T02:43:37;33.70;;;18.02;;
11962;SDS011;62678;52.130;5.584;2022-11-20T02:46:06;33.22;;;17.85;;
11962;SDS011;62678;52.130;5.584;2022-11-20T02:48:33;34.70;;;18.42;;
11962;SDS011;62678;52.130;5.584;2022-11-20T02:51:00;35.58;;;19.13;;
11962;SDS011;62678;52.130;5.584;2022-11-20T02:53:27;29.52;;;17.45;;
11962;SDS011;62678;52.130;5.584;2022-11-20T02:55:54;31.17;;;18.08;;
11962;SDS011;62678;52.130;5.584;2022-11-20T02:58:22;36.10;;;18.52;;
11962;SDS011;62678;52.130;5.584;2022-11-20T03:00:49;32.60;;;18.48;;
11962;SDS011;62678;52.130;5.584;2022-11-20T03:03:16;35.15;;;18.63;;
11962;SDS011;62678;52.130;5.584;2022-11-20T03:05:43;30.48;;;17.73;;
11962;SDS011;62678;52.130;5.584;2022-11-20T03:08:09;32.28;;;18.33;;
11962;SDS011;62678;52.130;5.584;2022-11-20T03:10:36;32.05;;;18.05;;
11962;SDS011;62678;52.130;5.584;2022-11-20T03:13:03;31.90;;;18.10;;
11962;SDS011;62678;52.130;5.584;2022-11-20T03:15:31;32.05;;;17.92;;
11962;SDS011;62678;52.130;5.584;2022-11-20T03:17:58;30.35;;;17.52;;
11962;SDS011;62678;52.130;5.584;2022-11-20T03:20:25;31.80;;;18.58;;
11962;SDS011;62678;52.130;5.584;2022-11-20T03:22:53;32.13;;;18.40;;
11962;SDS011;62678;52.130;5.584;2022-11-20T03:25:20;31.23;;;18.23;;
11962;SDS011;62678;52.130;5.584;2022-11-20T03:27:47;32.35;;;17.73;;
11962;SDS011;62678;52.130;5.584;2022-11-20T03:30:14;33.35;;;18.05;;
11962;SDS011;62678;52.130;5.584;2022-11-20T03:32:42;31.15;;;17.77;;
11962;SDS011;62678;52.130;5.584;2022-11-20T03:35:09;32.85;;;18.00;;
11962;SDS011;62678;52.130;5.584;2022-11-20T03:37:36;31.38;;;17.38;;
11962;SDS011;62678;52.130;5.584;2022-11-20T03:40:03;32.28;;;18.08;;
11962;SDS011;62678;52.130;5.584;2022-11-20T03:42:30;34.15;;;18.45;;
11962;SDS011;62678;52.130;5.584;2022-11-20T03:45:12;32.33;;;17.90;;
11962;SDS011;62678;52.130;5.584;2022-11-20T03:47:40;31.48;;;17.17;;
11962;SDS011;62678;52.130;5.584;2022-11-20T03:50:11;33.47;;;18.38;;
11962;SDS011;62678;52.130;5.584;2022-11-20T03:52:38;32.05;;;18.15;;
11962;SDS011;62678;52.130;5.584;2022-11-20T03:55:06;32.25;;;18.67;;
11962;SDS011;62678;52.130;5.584;2022-11-20T03:57:33;37.72;;;18.42;;
11962;SDS011;62678;52.130;5.584;2022-11-20T04:00:00;31.45;;;18.10;;
11962;SDS011;62678;52.130;5.584;2022-11-20T04:02:27;31.58;;;17.80;;
11962;SDS011;62678;52.130;5.584;2022-11-20T04:04:53;32.03;;;18.25;;
11962;SDS011;62678;52.130;5.584;2022-11-20T04:07:21;34.90;;;18.73;;
11962;SDS011;62678;52.130;5.584;2022-11-20T04:09:48;31.38;;;18.45;;
11962;SDS011;62678;52.130;5.584;2022-11-20T04:12:15;32.42;;;17.75;;
11962;SDS011;62678;52.130;5.584;2022-11-20T04:14:42;31.40;;;18.15;;
11962;SDS011;62678;52.130;5.584;2022-11-20T04:17:08;31.83;;;18.30;;
11962;SDS011;62678;52.130;5.584;2022-11-20T04:19:35;32.70;;;18.45;;
11962;SDS011;62678;52.130;5.584;2022-11-20T04:22:02;34.40;;;17.60;;
11962;SDS011;62678;52.130;5.584;2022-11-20T04:24:30;33.58;;;19.00;;
11962;SDS011;62678;52.130;5.584;2022-11-20T04:26:57;35.45;;;19.23;;
11962;SDS011;62678;52.130;5.584;2022-11-20T04:29:23;38.00;;;18.95;;
11962;SDS011;62678;52.130;5.584;2022-11-20T04:31:50;36.40;;;18.88;;
11962;SDS011;62678;52.130;5.584;2022-11-20T04:34:17;37.85;;;19.98;;
11962;SDS011;62678;52.130;5.584;2022-11-20T04:36:43;37.47;;;19.70;;
11962;SDS011;62678;52.130;5.584;2022-11-20T04:39:11;33.63;;;19.13;;
11962;SDS011;62678;52.130;5.584;2022-11-20T04:41:41;39.67;;;20.63;;
11962;SDS011;62678;52.130;5.584;2022-11-20T04:44:08;36.88;;;19.45;;
11962;SDS011;62678;52.130;5.584;2022-11-20T04:46:36;37.05;;;19.40;;
11962;SDS011;62678;52.130;5.584;2022-11-20T04:49:05;36.72;;;18.15;;
11962;SDS011;62678;52.130;5.584;2022-11-20T04:51:32;38.10;;;19.20;;
11962;SDS011;62678;52.130;5.584;2022-11-20T04:54:00;37.70;;;20.23;;
11962;SDS011;62678;52.130;5.584;2022-11-20T04:56:27;34.08;;;18.25;;
11962;SDS011;62678;52.130;5.584;2022-11-20T04:58:55;42.28;;;19.52;;
11962;SDS011;62678;52.130;5.584;2022-11-20T05:01:25;37.55;;;19.60;;
11962;SDS011;62678;52.130;5.584;2022-11-20T05:03:52;34.30;;;18.58;;
11962;SDS011;62678;52.130;5.584;2022-11-20T05:06:19;42.80;;;19.50;;
11962;SDS011;62678;52.130;5.584;2022-11-20T05:08:47;36.13;;;18.98;;
11962;SDS011;62678;52.130;5.584;2022-11-20T05:11:14;32.50;;;19.30;;
11962;SDS011;62678;52.130;5.584;2022-11-20T05:13:43;37.10;;;19.15;;
11962;SDS011;62678;52.130;5.584;2022-11-20T05:16:11;36.85;;;19.48;;
11962;SDS011;62678;52.130;5.584;2022-11-20T05:18:39;35.70;;;19.25;;
11962;SDS011;62678;52.130;5.584;2022-11-20T05:21:07;35.50;;;19.48;;
11962;SDS011;62678;52.130;5.584;2022-11-20T05:23:35;39.78;;;20.02;;
11962;SDS011;62678;52.130;5.584;2022-11-20T05:26:02;37.78;;;19.83;;
11962;SDS011;62678;52.130;5.584;2022-11-20T05:28:30;39.35;;;20.35;;
11962;SDS011;62678;52.130;5.584;2022-11-20T05:31:03;38.90;;;19.25;;
11962;SDS011;62678;52.130;5.584;2022-11-20T05:33:32;37.55;;;20.02;;
11962;SDS011;62678;52.130;5.584;2022-11-20T05:36:00;38.28;;;20.23;;
11962;SDS011;62678;52.130;5.584;2022-11-20T05:38:26;36.40;;;18.63;;
11962;SDS011;62678;52.130;5.584;2022-11-20T05:40:53;39.85;;;20.70;;
11962;SDS011;62678;52.130;5.584;2022-11-20T05:43:20;38.63;;;19.23;;
11962;SDS011;62678;52.130;5.584;2022-11-20T05:45:51;39.63;;;20.42;;
11962;SDS011;62678;52.130;5.584;2022-11-20T05:48:19;35.45;;;19.38;;
11962;SDS011;62678;52.130;5.584;2022-11-20T05:50:48;37.55;;;19.55;;
11962;SDS011;62678;52.130;5.584;2022-11-20T05:53:14;42.20;;;21.10;;
11962;SDS011;62678;52.130;5.584;2022-11-20T05:55:41;35.35;;;19.45;;
11962;SDS011;62678;52.130;5.584;2022-11-20T05:58:08;36.80;;;19.38;;
11962;SDS011;62678;52.130;5.584;2022-11-20T06:00:35;35.72;;;18.98;;
11962;SDS011;62678;52.130;5.584;2022-11-20T06:03:02;36.30;;;19.27;;
11962;SDS011;62678;52.130;5.584;2022-11-20T06:05:29;36.17;;;18.88;;
11962;SDS011;62678;52.130;5.584;2022-11-20T06:07:57;34.47;;;19.17;;
11962;SDS011;62678;52.130;5.584;2022-11-20T06:10:26;36.00;;;19.42;;
11962;SDS011;62678;52.130;5.584;2022-11-20T06:12:53;35.17;;;19.50;;
11962;SDS011;62678;52.130;5.584;2022-11-20T06:15:19;33.00;;;18.25;;
11962;SDS011;62678;52.130;5.584;2022-11-20T06:17:46;39.10;;;19.17;;
11962;SDS011;62678;52.130;5.584;2022-11-20T06:20:13;37.33;;;18.90;;
11962;SDS011;62678;52.130;5.584;2022-11-20T06:22:40;34.08;;;18.15;;
11962;SDS011;62678;52.130;5.584;2022-11-20T06:25:08;37.60;;;19.23;;
11962;SDS011;62678;52.130;5.584;2022-11-20T06:27:35;36.65;;;18.83;;
11962;SDS011;62678;52.130;5.584;2022-11-20T06:30:01;33.05;;;19.05;;
11962;SDS011;62678;52.130;5.584;2022-11-20T06:32:32;37.88;;;18.65;;
11962;SDS011;62678;52.130;5.584;2022-11-20T06:34:59;33.50;;;19.10;;
11962;SDS011;62678;52.130;5.584;2022-11-20T06:37:26;41.10;;;19.33;;
11962;SDS011;62678;52.130;5.584;2022-11-20T06:39:53;35.33;;;18.67;;
11962;SDS011;62678;52.130;5.584;2022-11-20T06:42:21;34.20;;;18.38;;
11962;SDS011;62678;52.130;5.584;2022-11-20T06:44:47;33.28;;;19.25;;
11962;SDS011;62678;52.130;5.584;2022-11-20T06:47:14;36.88;;;19.80;;
11962;SDS011;62678;52.130;5.584;2022-11-20T06:49:41;39.35;;;18.65;;
11962;SDS011;62678;52.130;5.584;2022-11-20T06:52:07;33.08;;;17.83;;
11962;SDS011;62678;52.130;5.584;2022-11-20T06:54:34;34.08;;;18.10;;
11962;SDS011;62678;52.130;5.584;2022-11-20T06:57:01;33.60;;;18.23;;
11962;SDS011;62678;52.130;5.584;2022-11-20T06:59:29;34.60;;;19.80;;
11962;SDS011;62678;52.130;5.584;2022-11-20T07:01:56;29.77;;;17.42;;
11962;SDS011;62678;52.130;5.584;2022-11-20T07:04:22;35.67;;;19.33;;
11962;SDS011;62678;52.130;5.584;2022-11-20T07:06:49;33.95;;;17.85;;
11962;SDS011;62678;52.130;5.584;2022-11-20T07:09:16;34.33;;;17.50;;
11962;SDS011;62678;52.130;5.584;2022-11-20T07:11:43;30.67;;;17.77;;
11962;SDS011;62678;52.130;5.584;2022-11-20T07:14:10;31.00;;;17.02;;
11962;SDS011;62678;52.130;5.584;2022-11-20T07:16:38;29.13;;;15.40;;
11962;SDS011;62678;52.130;5.584;2022-11-20T07:19:04;27.33;;;16.17;;
11962;SDS011;62678;52.130;5.584;2022-11-20T07:21:31;26.98;;;16.52;;
11962;SDS011;62678;52.130;5.584;2022-11-20T07:23:58;31.05;;;16.92;;
11962;SDS011;62678;52.130;5.584;2022-11-20T07:26:25;29.58;;;17.27;;
11962;SDS011;62678;52.130;5.584;2022-11-20T07:28:51;32.75;;;18.70;;
11962;SDS011;62678;52.130;5.584;2022-11-20T07:31:18;33.95;;;20.23;;
11962;SDS011;62678;52.130;5.584;2022-11-20T07:33:46;40.25;;;19.92;;
11962;SDS011;62678;52.130;5.584;2022-11-20T07:36:13;34.30;;;19.55;;
11962;SDS011;62678;52.130;5.584;2022-11-20T07:38:40;31.55;;;18.27;;
11962;SDS011;62678;52.130;5.584;2022-11-20T07:41:07;33.28;;;18.90;;
11962;SDS011;62678;52.130;5.584;2022-11-20T07:43:34;31.65;;;18.30;;
11962;SDS011;62678;52.130;5.584;2022-11-20T07:46:00;34.60;;;18.58;;
11962;SDS011;62678;52.130;5.584;2022-11-20T07:48:29;32.65;;;18.80;;
11962;SDS011;62678;52.130;5.584;2022-11-20T07:50:57;36.17;;;19.25;;
11962;SDS011;62678;52.130;5.584;2022-11-20T07:53:24;32.40;;;18.75;;
11962;SDS011;62678;52.130;5.584;2022-11-20T07:55:51;30.13;;;18.10;;
11962;SDS011;62678;52.130;5.584;2022-11-20T07:58:17;33.05;;;18.90;;
11962;SDS011;62678;52.130;5.584;2022-11-20T08:00:44;32.50;;;18.85;;
11962;SDS011;62678;52.130;5.584;2022-11-20T08:03:11;35.00;;;20.02;;
11962;SDS011;62678;52.130;5.584;2022-11-20T08:05:38;32.67;;;18.10;;
11962;SDS011;62678;52.130;5.584;2022-11-20T08:08:06;32.15;;;18.75;;
11962;SDS011;62678;52.130;5.584;2022-11-20T08:10:33;31.48;;;18.70;;
11962;SDS011;62678;52.130;5.584;2022-11-20T08:13:00;33.13;;;19.25;;
11962;SDS011;62678;52.130;5.584;2022-11-20T08:15:47;31.90;;;18.63;;
11962;SDS011;62678;52.130;5.584;2022-11-20T08:18:15;33.42;;;18.85;;
11962;SDS011;62678;52.130;5.584;2022-11-20T08:20:42;36.45;;;20.45;;
11962;SDS011;62678;52.130;5.584;2022-11-20T08:23:11;37.70;;;22.27;;
11962;SDS011;62678;52.130;5.584;2022-11-20T08:25:38;38.80;;;22.02;;
11962;SDS011;62678;52.130;5.584;2022-11-20T08:28:06;38.38;;;22.80;;
11962;SDS011;62678;52.130;5.584;2022-11-20T08:30:34;42.65;;;23.80;;
11962;SDS011;62678;52.130;5.584;2022-11-20T08:33:02;37.53;;;23.63;;
11962;SDS011;62678;52.130;5.584;2022-11-20T08:35:32;38.10;;;23.27;;
11962;SDS011;62678;52.130;5.584;2022-11-20T08:37:59;37.35;;;23.75;;
11962;SDS011;62678;52.130;5.584;2022-11-20T08:40:28;38.83;;;23.55;;
11962;SDS011;62678;52.130;5.584;2022-11-20T08:42:54;38.90;;;23.60;;
11962;SDS011;62678;52.130;5.584;2022-11-20T08:45:21;38.42;;;23.60;;
11962;SDS011;62678;52.130;5.584;2022-11-20T08:47:48;39.28;;;23.50;;
11962;SDS011;62678;52.130;5.584;2022-11-20T08:50:16;35.83;;;21.92;;
11962;SDS011;62678;52.130;5.584;2022-11-20T08:52:43;37.15;;;22.23;;
11962;SDS011;62678;52.130;5.584;2022-11-20T08:55:10;35.97;;;22.50;;
11962;SDS011;62678;52.130;5.584;2022-11-20T08:57:39;38.78;;;22.83;;
11962;SDS011;62678;52.130;5.584;2022-11-20T09:00:06;35.92;;;22.38;;
11962;SDS011;62678;52.130;5.584;2022-11-20T09:02:36;37.40;;;22.83;;
11962;SDS011;62678;52.130;5.584;2022-11-20T09:05:03;37.97;;;22.63;;
11962;SDS011;62678;52.130;5.584;2022-11-20T09:07:30;34.83;;;22.27;;
11962;SDS011;62678;52.130;5.584;2022-11-20T09:09:57;38.65;;;22.35;;
11962;SDS011;62678;52.130;5.584;2022-11-20T09:12:24;37.72;;;22.80;;
11962;SDS011;62678;52.130;5.584;2022-11-20T09:14:52;36.17;;;22.83;;
11962;SDS011;62678;52.130;5.584;2022-11-20T09:17:19;37.88;;;23.60;;
11962;SDS011;62678;52.130;5.584;2022-11-20T09:19:46;38.17;;;22.85;;
11962;SDS011;62678;52.130;5.584;2022-11-20T09:22:13;36.50;;;22.40;;
11962;SDS011;62678;52.130;5.584;2022-11-20T09:24:40;34.20;;;21.85;;
11962;SDS011;62678;52.130;5.584;2022-11-20T09:27:07;34.08;;;22.00;;
11962;SDS011;62678;52.130;5.584;2022-11-20T09:29:34;35.40;;;22.38;;
11962;SDS011;62678;52.130;5.584;2022-11-20T09:32:02;33.80;;;22.25;;
11962;SDS011;62678;52.130;5.584;2022-11-20T09:34:29;41.33;;;23.35;;
11962;SDS011;62678;52.130;5.584;2022-11-20T09:36:57;38.45;;;21.95;;
11962;SDS011;62678;52.130;5.584;2022-11-20T09:39:24;34.60;;;21.95;;
11962;SDS011;62678;52.130;5.584;2022-11-20T09:41:55;36.88;;;22.88;;
11962;SDS011;62678;52.130;5.584;2022-11-20T09:44:38;34.13;;;22.35;;
11962;SDS011;62678;52.130;5.584;2022-11-20T09:47:18;34.70;;;21.70;;
11962;SDS011;62678;52.130;5.584;2022-11-20T09:49:58;36.30;;;21.85;;
11962;SDS011;62678;52.130;5.584;2022-11-20T09:52:33;32.38;;;20.27;;
11962;SDS011;62678;52.130;5.584;2022-11-20T09:55:08;33.97;;;21.48;;
11962;SDS011;62678;52.130;5.584;2022-11-20T09:57:37;35.42;;;20.90;;
11962;SDS011;62678;52.130;5.584;2022-11-20T10:00:09;34.38;;;21.17;;
11962;SDS011;62678;52.130;5.584;2022-11-20T10:02:41;36.70;;;21.60;;
11962;SDS011;62678;52.130;5.584;2022-11-20T10:05:12;32.40;;;21.15;;
11962;SDS011;62678;52.130;5.584;2022-11-20T10:07:44;34.22;;;21.65;;
11962;SDS011;62678;52.130;5.584;2022-11-20T10:10:21;35.70;;;20.25;;
11962;SDS011;62678;52.130;5.584;2022-11-20T10:13:01;33.45;;;20.65;;
11962;SDS011;62678;52.130;5.584;2022-11-20T10:15:42;37.53;;;20.17;;
11962;SDS011;62678;52.130;5.584;2022-11-20T10:18:27;33.67;;;20.98;;
11962;SDS011;62678;52.130;5.584;2022-11-20T10:21:04;38.00;;;21.25;;
11962;SDS011;62678;52.130;5.584;2022-11-20T10:23:44;32.88;;;20.98;;
11962;SDS011;62678;52.130;5.584;2022-11-20T10:26:21;34.83;;;21.85;;
11962;SDS011;62678;52.130;5.584;2022-11-20T10:28:56;34.22;;;20.88;;
11962;SDS011;62678;52.130;5.584;2022-11-20T10:31:35;38.72;;;21.58;;
11962;SDS011;62678;52.130;5.584;2022-11-20T10:34:06;32.35;;;21.85;;
11962;SDS011;62678;52.130;5.584;2022-11-20T10:36:40;34.15;;;22.67;;
11962;SDS011;62678;52.130;5.584;2022-11-20T10:39:14;35.60;;;22.58;;
11962;SDS011;62678;52.130;5.584;2022-11-20T10:41:44;34.25;;;22.73;;
11962;SDS011;62678;52.130;5.584;2022-11-20T10:44:15;32.05;;;21.17;;
11962;SDS011;62678;52.130;5.584;2022-11-20T10:47:11;36.55;;;22.33;;
11962;SDS011;62678;52.130;5.584;2022-11-20T10:49:41;35.05;;;22.02;;
11962;SDS011;62678;52.130;5.584;2022-11-20T10:52:11;32.83;;;21.90;;
11962;SDS011;62678;52.130;5.584;2022-11-20T10:54:46;38.45;;;22.90;;
11962;SDS011;62678;52.130;5.584;2022-11-20T10:57:21;36.05;;;22.77;;
11962;SDS011;62678;52.130;5.584;2022-11-20T10:59:59;33.67;;;23.15;;
11962;SDS011;62678;52.130;5.584;2022-11-20T11:02:31;35.88;;;22.30;;
11962;SDS011;62678;52.130;5.584;2022-11-20T11:05:04;36.97;;;24.05;;
11962;SDS011;62678;52.130;5.584;2022-11-20T11:07:56;36.17;;;24.33;;
11962;SDS011;62678;52.130;5.584;2022-11-20T11:10:24;37.47;;;24.85;;
11962;SDS011;62678;52.130;5.584;2022-11-20T11:12:57;38.60;;;25.08;;
11962;SDS011;62678;52.130;5.584;2022-11-20T11:15:25;39.92;;;25.38;;
11962;SDS011;62678;52.130;5.584;2022-11-20T11:17:55;40.80;;;26.15;;
11962;SDS011;62678;52.130;5.584;2022-11-20T11:20:24;41.38;;;26.00;;
11962;SDS011;62678;52.130;5.584;2022-11-20T11:22:52;39.72;;;25.90;;
11962;SDS011;62678;52.130;5.584;2022-11-20T11:25:22;40.33;;;26.80;;
11962;SDS011;62678;52.130;5.584;2022-11-20T11:27:51;40.42;;;26.85;;
11962;SDS011;62678;52.130;5.584;2022-11-20T11:30:21;39.53;;;25.83;;
11962;SDS011;62678;52.130;5.584;2022-11-20T11:32:49;40.83;;;25.95;;
11962;SDS011;62678;52.130;5.584;2022-11-20T11:35:24;42.05;;;26.13;;
11962;SDS011;62678;52.130;5.584;2022-11-20T11:37:53;41.30;;;26.05;;
11962;SDS011;62678;52.130;5.584;2022-11-20T11:40:28;41.53;;;26.15;;
11962;SDS011;62678;52.130;5.584;2022-11-20T11:42:57;40.80;;;26.70;;
11962;SDS011;62678;52.130;5.584;2022-11-20T11:45:26;43.92;;;27.33;;
11962;SDS011;62678;52.130;5.584;2022-11-20T11:47:52;43.35;;;27.85;;
11962;SDS011;62678;52.130;5.584;2022-11-20T11:50:24;45.33;;;27.63;;
11962;SDS011;62678;52.130;5.584;2022-11-20T11:52:54;44.28;;;26.98;;
11962;SDS011;62678;52.130;5.584;2022-11-20T11:55:29;45.35;;;27.10;;
11962;SDS011;62678;52.130;5.584;2022-11-20T11:58:04;45.20;;;27.52;;
11962;SDS011;62678;52.130;5.584;2022-11-20T12:00:37;48.45;;;30.48;;
11962;SDS011;62678;52.130;5.584;2022-11-20T12:03:09;48.13;;;31.17;;
11962;SDS011;62678;52.130;5.584;2022-11-20T12:05:42;48.47;;;31.70;;
11962;SDS011;62678;52.130;5.584;2022-11-20T12:08:13;45.33;;;28.58;;
11962;SDS011;62678;52.130;5.584;2022-11-20T12:10:45;47.78;;;29.70;;
11962;SDS011;62678;52.130;5.584;2022-11-20T12:13:25;43.58;;;27.98;;
11962;SDS011;62678;52.130;5.584;2022-11-20T12:16:03;44.30;;;26.25;;
11962;SDS011;62678;52.130;5.584;2022-11-20T12:18:30;39.53;;;25.35;;
11962;SDS011;62678;52.130;5.584;2022-11-20T12:21:02;41.15;;;26.55;;
11962;SDS011;62678;52.130;5.584;2022-11-20T12:23:40;43.60;;;26.90;;
11962;SDS011;62678;52.130;5.584;2022-11-20T12:26:27;44.85;;;27.88;;
11962;SDS011;62678;52.130;5.584;2022-11-20T12:29:06;41.80;;;26.38;;
11962;SDS011;62678;52.130;5.584;2022-11-20T12:31:50;42.22;;;27.35;;
11962;SDS011;62678;52.130;5.584;2022-11-20T12:34:32;41.05;;;26.38;;
11962;SDS011;62678;52.130;5.584;2022-11-20T12:37:21;43.20;;;25.67;;
11962;SDS011;62678;52.130;5.584;2022-11-20T12:40:01;44.25;;;27.17;;
11962;SDS011;62678;52.130;5.584;2022-11-20T12:42:39;43.83;;;27.85;;
11962;SDS011;62678;52.130;5.584;2022-11-20T12:45:39;41.30;;;26.40;;
11962;SDS011;62678;52.130;5.584;2022-11-20T12:48:33;44.88;;;26.73;;
11962;SDS011;62678;52.130;5.584;2022-11-20T12:51:30;44.97;;;26.05;;
11962;SDS011;62678;52.130;5.584;2022-11-20T12:54:17;42.60;;;26.15;;
11962;SDS011;62678;52.130;5.584;2022-11-20T12:56:56;42.78;;;26.33;;
11962;SDS011;62678;52.130;5.584;2022-11-20T12:59:33;43.22;;;27.00;;
11962;SDS011;62678;52.130;5.584;2022-11-20T13:02:14;46.30;;;28.23;;
11962;SDS011;62678;52.130;5.584;2022-11-20T13:04:54;45.20;;;27.92;;
11962;SDS011;62678;52.130;5.584;2022-11-20T13:07:31;46.10;;;28.65;;
11962;SDS011;62678;52.130;5.584;2022-11-20T13:10:02;49.08;;;31.52;;
11962;SDS011;62678;52.130;5.584;2022-11-20T13:12:33;48.55;;;30.17;;
11962;SDS011;62678;52.130;5.584;2022-11-20T13:15:04;49.58;;;30.08;;
11962;SDS011;62678;52.130;5.584;2022-11-20T13:17:41;47.90;;;29.77;;
11962;SDS011;62678;52.130;5.584;2022-11-20T13:20:13;42.85;;;27.90;;
11962;SDS011;62678;52.130;5.584;2022-11-20T13:22:43;44.90;;;29.20;;
11962;SDS011;62678;52.130;5.584;2022-11-20T13:25:22;51.78;;;34.42;;
11962;SDS011;62678;52.130;5.584;2022-11-20T13:27:50;55.70;;;35.05;;
11962;SDS011;62678;52.130;5.584;2022-11-20T13:30:18;55.38;;;34.70;;
11962;SDS011;62678;52.130;5.584;2022-11-20T13:32:49;49.67;;;31.98;;
11962;SDS011;62678;52.130;5.584;2022-11-20T13:35:26;49.45;;;32.75;;
11962;SDS011;62678;52.130;5.584;2022-11-20T13:38:05;48.38;;;31.52;;
11962;SDS011;62678;52.130;5.584;2022-11-20T13:40:35;49.53;;;30.73;;
11962;SDS011;62678;52.130;5.584;2022-11-20T13:43:10;52.38;;;32.80;;
11962;SDS011;62678;52.130;5.584;2022-11-20T13:45:53;52.13;;;32.42;;
11962;SDS011;62678;52.130;5.584;2022-11-20T13:48:22;50.15;;;31.58;;
11962;SDS011;62678;52.130;5.584;2022-11-20T13:50:55;46.88;;;30.20;;
11962;SDS011;62678;52.130;5.584;2022-11-20T13:53:33;46.30;;;28.63;;
11962;SDS011;62678;52.130;5.584;2022-11-20T13:56:14;48.13;;;29.42;;
11962;SDS011;62678;52.130;5.584;2022-11-20T13:58:52;47.30;;;28.88;;
11962;SDS011;62678;52.130;5.584;2022-11-20T14:01:28;49.65;;;31.75;;
11962;SDS011;62678;52.130;5.584;2022-11-20T14:03:58;51.42;;;31.85;;
11962;SDS011;62678;52.130;5.584;2022-11-20T14:06:26;54.30;;;34.30;;
11962;SDS011;62678;52.130;5.584;2022-11-20T14:08:54;53.78;;;34.47;;
11962;SDS011;62678;52.130;5.584;2022-11-20T14:11:24;53.88;;;33.00;;
11962;SDS011;62678;52.130;5.584;2022-11-20T14:13:56;53.78;;;32.83;;
11962;SDS011;62678;52.130;5.584;2022-11-20T14:16:27;53.78;;;32.05;;
11962;SDS011;62678;52.130;5.584;2022-11-20T14:18:55;51.63;;;31.77;;
11962;SDS011;62678;52.130;5.584;2022-11-20T14:21:25;50.38;;;30.83;;
11962;SDS011;62678;52.130;5.584;2022-11-20T14:23:53;55.60;;;33.13;;
11962;SDS011;62678;52.130;5.584;2022-11-20T14:26:29;54.63;;;31.85;;
11962;SDS011;62678;52.130;5.584;2022-11-20T14:28:56;58.47;;;33.35;;
11962;SDS011;62678;52.130;5.584;2022-11-20T14:31:24;54.47;;;33.55;;
11962;SDS011;62678;52.130;5.584;2022-11-20T14:33:53;54.92;;;32.45;;
11962;SDS011;62678;52.130;5.584;2022-11-20T14:36:22;56.17;;;34.17;;
11962;SDS011;62678;52.130;5.584;2022-11-20T14:38:50;54.25;;;33.05;;
11962;SDS011;62678;52.130;5.584;2022-11-20T14:41:18;54.22;;;33.13;;